createdAt,value
2023-05-18T00:00:41.659Z,94615.00
2023-05-18T00:04:45.345Z,94617.00
2023-05-18T00:08:53.033Z,94619.00
2023-05-18T00:12:56.791Z,94613.00
2023-05-18T00:17:02.121Z,94604.00
2023-05-18T00:21:06.579Z,94607.00
2023-05-18T00:25:12.585Z,94599.00
2023-05-18T00:29:16.432Z,94604.00
2023-05-18T00:33:21.103Z,94601.00
2023-05-18T00:37:24.534Z,94604.00
2023-05-18T00:41:30.052Z,94605.00
2023-05-18T00:45:34.183Z,94604.00
2023-05-18T00:49:37.777Z,94602.00
2023-05-18T00:53:45.813Z,94599.00
2023-05-18T00:57:50.737Z,94599.00
2023-05-18T01:01:59.661Z,94613.00
2023-05-18T01:06:05.917Z,94608.00
2023-05-18T01:10:10.691Z,94605.00
2023-05-18T01:14:21.476Z,94609.00
2023-05-18T01:18:30.535Z,94615.00
2023-05-18T01:22:52.294Z,94618.00
2023-05-18T01:27:01.291Z,94614.00
2023-05-18T01:31:05.108Z,94611.00
2023-05-18T01:35:10.727Z,94614.00
2023-05-18T01:39:14.516Z,94620.00
2023-05-18T01:43:21.656Z,94628.00
2023-05-18T01:47:30.097Z,94623.00
2023-05-18T01:51:37.452Z,94632.00
2023-05-18T01:55:42.832Z,94628.00
2023-05-18T01:59:48.373Z,94626.00
2023-05-18T02:03:53.411Z,94629.00
2023-05-18T02:07:58.353Z,94625.00
2023-05-18T02:12:09.719Z,94628.00
2023-05-18T02:16:14.874Z,94612.00
2023-05-18T02:20:19.448Z,94622.00
2023-05-18T02:24:23.318Z,94621.00
2023-05-18T02:28:27.029Z,94606.00
2023-05-18T02:32:32.780Z,94615.00
2023-05-18T02:36:40.408Z,94610.00
2023-05-18T02:40:44.075Z,94619.00
2023-05-18T02:44:56.435Z,94616.00
2023-05-18T02:49:01.838Z,94621.00
2023-05-18T02:53:05.463Z,94603.00
2023-05-18T02:57:09.138Z,94617.00
2023-05-18T03:01:35.037Z,94618.00
2023-05-18T03:05:39.899Z,94606.00
2023-05-18T03:09:43.716Z,94614.00
2023-05-18T03:13:47.431Z,94610.00
2023-05-18T03:17:52.058Z,94610.00
2023-05-18T03:21:59.172Z,94607.00
2023-05-18T03:26:04.077Z,94618.00
2023-05-18T03:30:09.601Z,94618.00
2023-05-18T03:34:14.790Z,94631.00
2023-05-18T03:38:20.218Z,94630.00
2023-05-18T03:42:34.263Z,94638.00
2023-05-18T03:46:37.993Z,94627.00
2023-05-18T03:50:41.896Z,94630.00
2023-05-18T03:54:46.690Z,94641.00
2023-05-18T03:58:53.637Z,94647.00
2023-05-18T04:02:57.407Z,94640.00
2023-05-18T04:07:06.306Z,94649.00
2023-05-18T04:11:11.222Z,94652.00
2023-05-18T04:15:18.004Z,94657.00
2023-05-18T04:19:21.845Z,94658.00
2023-05-18T04:23:25.784Z,94659.00
2023-05-18T04:27:30.982Z,94666.00
2023-05-18T04:31:36.429Z,94649.00
2023-05-18T04:35:40.009Z,94655.00
2023-05-18T04:39:43.867Z,94651.00
2023-05-18T04:43:51.610Z,94662.00
2023-05-18T04:47:55.606Z,94655.00
2023-05-18T04:52:01.150Z,94650.00
2023-05-18T04:56:04.772Z,94658.00
2023-05-18T05:00:12.997Z,94667.00
2023-05-18T05:04:16.961Z,94656.00
2023-05-18T05:08:21.290Z,94651.00
2023-05-18T05:12:24.806Z,94663.00
2023-05-18T05:16:33.598Z,94655.00
2023-05-18T05:20:37.602Z,94675.00
2023-05-18T05:24:43.364Z,94677.00
2023-05-18T05:28:47.052Z,94683.00
2023-05-18T05:32:55.677Z,94678.00
2023-05-18T05:36:59.445Z,94681.00
2023-05-18T05:41:03.436Z,94694.00
2023-05-18T05:45:08.153Z,94689.00
2023-05-18T05:49:22.167Z,94695.00
2023-05-18T05:53:25.859Z,94697.00
2023-05-18T05:57:29.991Z,94697.00
2023-05-18T06:01:34.962Z,94697.00
2023-05-18T06:05:40.075Z,94695.00
2023-05-18T06:09:45.888Z,94700.00
2023-05-18T06:13:49.958Z,94694.00
2023-05-18T06:17:53.593Z,94707.00
2023-05-18T06:22:01.165Z,94698.00
2023-05-18T06:26:09.227Z,94703.00
2023-05-18T06:30:46.584Z,94710.00
2023-05-18T06:34:58.048Z,94715.00
2023-05-18T06:39:07.652Z,94714.00
2023-05-18T06:43:11.323Z,94715.00
2023-05-18T06:47:24.096Z,94717.00
2023-05-18T06:51:27.917Z,94723.00
2023-05-18T06:55:34.424Z,94723.00
2023-05-18T06:59:38.154Z,94725.00
2023-05-18T07:03:48.229Z,94724.00
2023-05-18T07:07:51.935Z,94736.00
2023-05-18T07:12:04.298Z,94731.00
2023-05-18T07:16:08.354Z,94734.00
2023-05-18T07:20:19.238Z,94736.00
2023-05-18T07:24:22.830Z,94729.00
2023-05-18T07:28:28.910Z,94730.00
2023-05-18T07:32:32.473Z,94728.00
2023-05-18T07:36:36.257Z,94733.00
2023-05-18T07:40:40.060Z,94740.00
2023-05-18T07:44:47.450Z,94736.00
2023-05-18T07:48:52.211Z,94728.00
2023-05-18T07:52:55.666Z,94729.00
2023-05-18T07:57:00.637Z,94728.00
2023-05-18T08:01:05.843Z,94722.00
2023-05-18T08:05:11.244Z,94729.00
2023-05-18T08:09:14.652Z,94734.00
2023-05-18T08:13:22.580Z,94736.00
2023-05-18T08:17:28.009Z,94740.00
2023-05-18T08:21:32.922Z,94735.00
2023-05-18T08:25:36.512Z,94725.00
2023-05-18T08:29:40.116Z,94738.00
2023-05-18T08:33:45.311Z,94749.00
2023-05-18T08:37:51.487Z,94739.00
2023-05-18T08:42:02.532Z,94741.00
2023-05-18T08:46:08.082Z,94739.00
2023-05-18T08:50:16.125Z,94743.00
2023-05-18T08:54:26.013Z,94746.00
2023-05-18T08:58:38.086Z,94751.00
2023-05-18T09:02:43.549Z,94743.00
2023-05-18T09:06:49.668Z,94751.00
2023-05-18T09:10:53.788Z,94742.00
2023-05-18T09:15:01.139Z,94745.00
2023-05-18T09:19:05.572Z,94743.00
2023-05-18T09:23:13.442Z,94740.00
2023-05-18T09:27:17.052Z,94744.00
2023-05-18T09:31:24.599Z,94739.00
2023-05-18T09:35:28.804Z,94731.00
2023-05-18T09:39:34.192Z,94735.00
2023-05-18T09:43:37.705Z,94730.00
2023-05-18T09:47:41.208Z,94732.00
2023-05-18T09:51:44.848Z,94732.00
2023-05-18T09:55:50.734Z,94723.00
2023-05-18T10:00:07.054Z,94722.00
2023-05-18T10:04:10.640Z,94713.00
2023-05-18T10:08:16.332Z,94727.00
2023-05-18T10:12:22.520Z,94712.00
2023-05-18T10:16:27.253Z,94717.00
2023-05-18T10:20:31.129Z,94716.00
2023-05-18T10:24:40.291Z,94702.00
2023-05-18T10:28:47.593Z,94703.00
2023-05-18T10:32:53.839Z,94696.00
2023-05-18T10:36:59.181Z,94708.00
2023-05-18T10:41:06.993Z,94705.00
2023-05-18T10:45:12.639Z,94708.00
2023-05-18T10:49:18.353Z,94718.00
2023-05-18T10:53:24.214Z,94721.00
2023-05-18T10:57:32.413Z,94712.00
2023-05-18T11:01:38.526Z,94714.00
2023-05-18T11:05:43.633Z,94722.00
2023-05-18T11:09:47.231Z,94717.00
2023-05-18T11:13:53.058Z,94708.00
2023-05-18T11:18:16.575Z,94719.00
2023-05-18T11:22:20.084Z,94705.00
2023-05-18T11:26:30.361Z,94724.00
2023-05-18T11:30:51.393Z,94707.00
2023-05-18T11:34:56.300Z,94706.00
2023-05-18T11:39:06.986Z,94712.00
2023-05-18T11:43:10.531Z,94717.00
2023-05-18T11:47:14.129Z,94719.00
2023-05-18T11:51:19.451Z,94716.00
2023-05-18T11:55:23.013Z,94705.00
2023-05-18T11:59:35.300Z,94711.00
2023-05-18T12:03:40.716Z,94712.00
2023-05-18T12:07:46.089Z,94715.00
2023-05-18T12:11:49.659Z,94711.00
2023-05-18T12:15:59.078Z,94715.00
2023-05-18T12:20:03.414Z,94704.00
2023-05-18T12:24:11.906Z,94710.00
2023-05-18T12:28:17.238Z,94717.00
2023-05-18T12:32:21.101Z,94714.00
2023-05-18T12:36:24.637Z,94709.00
2023-05-18T12:40:38.790Z,94718.00
2023-05-18T12:44:43.949Z,94714.00
2023-05-18T12:48:48.858Z,94714.00
2023-05-18T12:52:52.615Z,94718.00
2023-05-18T12:57:02.056Z,94720.00
2023-05-18T13:01:11.748Z,94717.00
2023-05-18T13:05:15.528Z,94721.00
2023-05-18T13:09:20.089Z,94723.00
2023-05-18T13:13:25.293Z,94709.00
2023-05-18T13:17:28.766Z,94715.00
2023-05-18T13:21:34.340Z,94718.00
2023-05-18T13:25:38.351Z,94714.00
2023-05-18T13:29:51.455Z,94705.00
2023-05-18T13:33:55.250Z,94706.00
2023-05-18T13:37:59.038Z,94703.00
2023-05-18T13:42:07.766Z,94706.00
2023-05-18T13:46:14.796Z,94711.00
2023-05-18T13:50:19.251Z,94715.00
2023-05-18T13:54:22.971Z,94713.00
2023-05-18T13:58:26.464Z,94706.00
2023-05-18T14:02:31.699Z,94708.00
2023-05-18T14:06:35.340Z,94708.00
2023-05-18T14:10:39.080Z,94709.00
2023-05-18T14:14:43.440Z,94703.00
2023-05-18T14:18:48.627Z,94702.00
2023-05-18T14:22:52.245Z,94711.00
2023-05-18T14:27:01.290Z,94710.00
2023-05-18T14:31:06.860Z,94713.00
2023-05-18T14:35:13.017Z,94701.00
2023-05-18T14:39:16.545Z,94708.00
2023-05-18T14:43:20.218Z,94696.00
2023-05-18T14:47:23.927Z,94694.00
2023-05-18T14:51:28.864Z,94689.00
2023-05-18T14:55:32.718Z,94703.00
2023-05-18T14:59:36.983Z,94696.00
2023-05-18T15:03:41.218Z,94697.00
2023-05-18T15:07:46.269Z,94704.00
2023-05-18T15:11:50.834Z,94695.00
2023-05-18T15:15:54.680Z,94695.00
2023-05-18T15:19:58.430Z,94693.00
2023-05-18T15:24:03.359Z,94690.00
2023-05-18T15:28:09.101Z,94685.00
2023-05-18T15:32:13.534Z,94690.00
2023-05-18T15:36:19.458Z,94681.00
2023-05-18T15:40:24.467Z,94691.00
2023-05-18T15:44:29.608Z,94688.00
2023-05-18T15:48:33.749Z,94689.00
2023-05-18T15:52:37.308Z,94677.00
2023-05-18T15:56:42.453Z,94679.00
2023-05-18T16:00:46.000Z,94688.00
2023-05-18T16:04:52.011Z,94688.00
2023-05-18T16:08:59.692Z,94673.00
2023-05-18T16:13:06.154Z,94674.00
2023-05-18T16:17:10.482Z,94680.00
2023-05-18T16:21:14.502Z,94681.00
2023-05-18T16:25:20.359Z,94673.00
2023-05-18T16:29:40.601Z,94677.00
2023-05-18T16:34:01.316Z,94674.00
2023-05-18T16:38:19.664Z,94672.00
2023-05-18T16:42:26.740Z,94677.00
2023-05-18T16:46:39.092Z,94674.00
2023-05-18T16:51:03.881Z,94674.00
2023-05-18T16:55:08.961Z,94671.00
2023-05-18T16:59:15.599Z,94677.00
2023-05-18T17:03:22.809Z,94677.00
2023-05-18T17:07:28.380Z,94679.00
2023-05-18T17:11:32.010Z,94681.00
2023-05-18T17:15:36.322Z,94683.00
2023-05-18T17:19:41.755Z,94690.00
2023-05-18T17:23:45.930Z,94690.00
2023-05-18T17:27:49.484Z,94683.00
2023-05-18T17:31:53.529Z,94679.00
2023-05-18T17:35:59.193Z,94697.00
2023-05-18T17:40:03.258Z,94692.00
2023-05-18T17:44:07.528Z,94692.00
2023-05-18T17:48:12.439Z,94700.00
2023-05-18T17:52:19.160Z,94698.00
2023-05-18T17:56:25.019Z,94689.00
2023-05-18T18:00:28.696Z,94703.00
2023-05-18T18:04:32.317Z,94697.00
2023-05-18T18:08:38.254Z,94712.00
2023-05-18T18:12:42.279Z,94712.00
2023-05-18T18:16:47.040Z,94714.00
2023-05-18T18:20:50.790Z,94709.00
2023-05-18T18:25:00.248Z,94711.00
2023-05-18T18:29:33.541Z,94707.00
2023-05-18T18:34:12.633Z,94707.00
2023-05-18T18:38:31.580Z,94713.00
2023-05-18T18:42:57.281Z,94712.00
2023-05-18T18:47:44.597Z,94716.00
2023-05-18T18:52:10.270Z,94717.00
2023-05-18T18:56:42.274Z,94722.00
2023-05-18T19:00:58.311Z,94725.00
2023-05-18T19:05:12.351Z,94712.00
2023-05-18T19:09:42.580Z,94729.00
2023-05-18T19:13:49.105Z,94724.00
2023-05-18T19:17:56.287Z,94734.00
2023-05-18T19:22:24.547Z,94736.00
2023-05-18T19:26:34.392Z,94738.00
2023-05-18T19:30:42.710Z,94737.00
2023-05-18T19:34:48.283Z,94742.00
2023-05-18T19:38:54.390Z,94742.00
2023-05-18T19:42:59.961Z,94751.00
2023-05-18T19:47:04.864Z,94756.00
2023-05-18T19:51:20.033Z,94760.00
2023-05-18T19:55:29.626Z,94762.00
2023-05-18T19:59:39.046Z,94760.00
2023-05-18T20:03:47.596Z,94756.00
2023-05-18T20:07:54.683Z,94760.00
2023-05-18T20:11:58.308Z,94761.00
2023-05-18T20:16:02.981Z,94762.00
2023-05-18T20:20:09.917Z,94771.00
2023-05-18T20:24:20.030Z,94761.00
2023-05-18T20:28:26.375Z,94761.00
2023-05-18T20:32:29.821Z,94765.00
2023-05-18T20:36:55.580Z,94771.00
2023-05-18T20:41:09.996Z,94763.00
2023-05-18T20:45:13.908Z,94765.00
2023-05-18T20:49:17.489Z,94753.00
2023-05-18T20:53:21.988Z,94762.00
2023-05-18T20:57:28.018Z,94766.00
2023-05-18T21:01:32.376Z,94766.00
2023-05-18T21:05:36.322Z,94758.00
2023-05-18T21:09:39.869Z,94760.00
2023-05-18T21:13:44.760Z,94751.00
2023-05-18T21:17:48.506Z,94750.00
2023-05-18T21:21:52.030Z,94754.00
2023-05-18T21:25:55.989Z,94750.00
2023-05-18T21:30:01.152Z,94762.00
2023-05-18T21:34:06.074Z,94758.00
2023-05-18T21:38:09.537Z,94761.00
2023-05-18T21:42:15.551Z,94758.00
2023-05-18T21:46:20.522Z,94761.00
2023-05-18T21:50:24.085Z,94756.00
2023-05-18T21:54:32.083Z,94766.00
2023-05-18T21:58:36.304Z,94759.00
2023-05-18T22:02:41.497Z,94763.00
2023-05-18T22:06:45.093Z,94748.00
2023-05-18T22:10:48.575Z,94769.00
2023-05-18T22:14:52.134Z,94768.00
2023-05-18T22:18:58.274Z,94770.00
2023-05-18T22:23:01.906Z,94761.00
2023-05-18T22:27:06.288Z,94769.00
2023-05-18T22:31:09.991Z,94761.00
2023-05-18T22:35:15.357Z,94757.00
2023-05-18T22:39:19.248Z,94756.00
2023-05-18T22:43:22.949Z,94753.00
2023-05-18T22:47:28.465Z,94757.00
2023-05-18T22:51:34.088Z,94757.00
2023-05-18T22:55:37.964Z,94755.00
2023-05-18T22:59:41.666Z,94747.00
2023-05-18T23:03:45.412Z,94748.00
2023-05-18T23:07:50.267Z,94738.00
2023-05-18T23:11:55.687Z,94735.00
2023-05-18T23:16:01.174Z,94734.00
2023-05-18T23:20:06.910Z,94730.00
2023-05-18T23:24:12.425Z,94733.00
2023-05-18T23:28:16.743Z,94724.00
2023-05-18T23:32:20.373Z,94725.00
2023-05-18T23:36:27.530Z,94722.00
2023-05-18T23:40:33.301Z,94723.00
2023-05-18T23:44:37.502Z,94727.00
2023-05-18T23:48:41.901Z,94736.00
2023-05-18T23:52:48.253Z,94729.00
2023-05-18T23:56:53.991Z,94717.00
